Time;durP1;ratioP1;P1;durP2;ratioP2;P2;SDS_P1;SDS_P2;PMS_P1;PMS_P2;Temp;Humidity;BMP_temperature;BMP_pressure;BME280_temperature;BME280_humidity;BME280_pressure;Samples;Min_cycle;Max_cycle;Signal;HPM_P1;HPM_P2
2023/04/16 07:01:30;;;;;;;0.60;0.60;;;10.10;99.90;12.50;102204.00;;;;6240671;23;20181;-67
2023/04/16 07:04:02;;;;;;;0.63;0.40;;;10.00;99.90;12.30;102201.00;;;;6190901;23;20180;-67
2023/04/16 07:06:41;;;;;;;0.73;0.73;;;9.80;99.90;13.30;102208.00;;;;6215831;23;20146;-67
2023/04/16 07:09:13;;;;;;;3.50;1.60;;;10.10;99.90;13.10;102206.00;;;;6217445;23;20146;-67
2023/04/16 07:11:44;;;;;;;0.70;0.70;;;10.30;99.90;12.50;102155.00;;;;6190955;23;20653;-67
2023/04/16 07:14:18;;;;;;;0.20;0.20;;;10.20;99.90;13.10;102208.00;;;;6190424;23;20159;-67
2023/04/16 07:16:55;;;;;;;0.90;0.90;;;10.10;99.90;13.30;102229.00;;;;6215407;23;20204;-67
2023/04/16 07:19:21;;;;;;;0.40;0.40;;;10.30;99.90;13.90;102226.00;;;;6190425;23;20161;-67
2023/04/16 07:21:53;;;;;;;0.20;0.20;;;10.50;99.90;13.70;102226.00;;;;6190814;23;20188;-67
2023/04/16 07:24:24;;;;;;;7.00;1.00;;;10.50;99.90;13.60;102221.00;;;;6190676;23;20574;-67
2023/04/16 07:27:00;;;;;;;1.50;1.07;;;10.60;99.90;13.10;102221.00;;;;6215616;23;20573;-67
2023/04/16 07:29:38;;;;;;;0.20;0.20;;;10.50;99.90;14.00;102226.00;;;;6190163;23;20223;-67
2023/04/16 07:32:15;;;;;;;0.20;0.20;;;10.60;99.90;13.60;102207.00;;;;6190740;23;20173;-67
2023/04/16 07:34:49;;;;;;;0.30;0.30;;;10.60;99.90;14.20;102230.00;;;;6215599;23;20145;-67
2023/04/16 07:37:23;;;;;;;1.23;1.13;;;10.70;99.90;13.70;102193.00;;;;6215490;23;20603;-68
2023/04/16 07:40:00;;;;;;;2.00;1.53;;;10.90;99.90;12.50;102214.00;;;;6190497;23;20198;-68
2023/04/16 07:42:37;;;;;;;6.23;1.60;;;10.50;99.90;13.00;102154.00;;;;6214846;23;20195;-68
2023/04/16 07:45:11;;;;;;;0.50;0.50;;;10.30;99.90;12.70;102218.00;;;;6215617;23;20219;-68
2023/04/16 07:47:46;;;;;;;0.70;0.70;;;10.30;99.90;13.40;102224.00;;;;6190256;23;20585;-68
2023/04/16 07:50:18;;;;;;;0.20;0.20;;;10.50;99.90;13.80;102236.00;;;;6191056;23;20575;-68
2023/04/16 07:52:49;;;;;;;0.40;0.40;;;10.60;99.90;14.20;102249.00;;;;6190877;23;20594;-68
2023/04/16 07:55:24;;;;;;;0.20;0.20;;;10.70;99.90;14.10;102252.00;;;;6189686;23;20159;-69
2023/04/16 07:58:02;;;;;;;1.30;1.30;;;10.80;99.90;14.30;102209.00;;;;6189079;23;20157;-68
2023/04/16 08:00:37;;;;;;;0.20;0.20;;;11.10;99.90;13.20;102203.00;;;;6237436;23;20170;-68
2023/04/16 08:03:09;;;;;;;1.50;0.73;;;10.90;99.90;14.30;102244.00;;;;6195228;23;20184;-68
2023/04/16 08:05:35;;;;;;;0.30;0.30;;;11.00;99.90;13.60;102247.00;;;;6195533;23;20550;-68
2023/04/16 08:08:03;;;;;;;2.67;1.33;;;11.00;99.90;13.70;102256.00;;;;6219884;23;20177;-68
2023/04/16 08:10:32;;;;;;;1.17;0.63;;;10.90;99.90;13.20;102208.00;;;;6217177;23;20155;-68
2023/04/16 08:13:00;;;;;;;1.43;0.97;;;10.70;99.90;12.90;102210.00;;;;6194339;23;20168;-68
2023/04/16 08:15:26;;;;;;;0.73;0.53;;;10.60;99.90;13.10;102240.00;;;;6220133;23;20155;-68
2023/04/16 08:17:55;;;;;;;0.50;0.50;;;10.50;99.90;13.40;102258.00;;;;6219910;23;20197;-70
2023/04/16 08:20:29;;;;;;;0.33;0.33;;;10.60;99.90;14.20;102268.00;;;;6220248;23;20566;-67
2023/04/16 08:23:03;;;;;;;1.20;1.07;;;10.90;99.90;13.50;102229.00;;;;6195460;23;20640;-67
2023/04/16 08:25:41;;;;;;;0.60;0.60;;;10.90;99.90;12.90;102251.00;;;;6194597;23;20164;-67
2023/04/16 08:28:13;;;;;;;0.97;0.93;;;10.60;99.90;13.70;102269.00;;;;6246782;23;20530;-67
2023/04/16 08:30:48;;;;;;;0.17;0.17;;;10.70;99.90;13.40;102273.00;;;;6220001;23;20577;-67
2023/04/16 08:33:14;;;;;;;0.37;0.37;;;10.70;99.90;13.90;102234.00;;;;6195007;23;20169;-67
2023/04/16 08:35:47;;;;;;;0.83;0.83;;;10.90;99.90;13.70;102244.00;;;;6220325;23;20220;-67
2023/04/16 08:38:26;;;;;;;0.10;0.10;;;10.90;99.90;14.20;102292.00;;;;6247111;23;20214;-67
2023/04/16 08:41:17;;;;;;;0.47;0.47;;;11.10;99.90;14.60;102277.00;;;;6195710;23;20153;-67
2023/04/16 08:43:56;;;;;;;0.30;0.30;;;11.30;99.90;14.10;102256.00;;;;6195008;23;20181;-66
2023/04/16 08:46:45;;;;;;;3.50;1.47;;;11.20;99.90;14.00;102278.00;;;;6219978;23;20144;-67
2023/04/16 08:49:19;;;;;;;0.20;0.20;;;11.20;99.90;13.70;102266.00;;;;6195222;23;20171;-67
2023/04/16 08:52:00;;;;;;;0.20;0.20;;;11.00;99.90;14.60;102303.00;;;;6220210;23;20460;-67
2023/04/16 08:54:43;;;;;;;0.67;0.67;;;11.40;99.90;13.60;102279.00;;;;6219311;23;20149;-67
2023/04/16 08:57:28;;;;;;;0.67;0.67;;;11.30;99.90;14.60;102301.00;;;;6220239;23;20152;-66
2023/04/16 09:00:08;;;;;;;0.40;0.40;;;11.30;99.90;13.90;102300.00;;;;6219256;23;20177;-66
2023/04/16 09:02:51;;;;;;;0.70;0.70;;;11.20;99.90;14.10;102291.00;;;;6193067;23;20823;-66
2023/04/16 09:05:26;;;;;;;1.53;1.43;;;11.20;99.90;13.90;102289.00;;;;6219973;23;20500;-66
2023/04/16 09:08:09;;;;;;;1.30;1.20;;;11.10;99.90;14.20;102302.00;;;;6219531;23;20244;-66
2023/04/16 09:10:45;;;;;;;0.30;0.30;;;11.20;99.90;14.40;102296.00;;;;6220470;23;20207;-65
2023/04/16 09:13:25;;;;;;;0.60;0.60;;;11.30;99.90;14.60;102297.00;;;;6194960;23;20241;-66
2023/04/16 09:16:23;;;;;;;0.27;0.27;;;11.40;99.90;14.50;102291.00;;;;6220140;23;20141;-66
2023/04/16 09:19:13;;;;;;;0.90;0.90;;;11.40;99.90;14.70;102307.00;;;;6246273;23;20608;-66
2023/04/16 09:21:51;;;;;;;1.47;1.47;;;11.70;99.90;13.90;102282.00;;;;6199451;23;20172;-66
2023/04/16 09:24:41;;;;;;;1.47;1.30;;;11.40;99.90;13.90;102289.00;;;;6219651;23;20137;-66
2023/04/16 09:27:15;;;;;;;0.13;0.13;;;11.20;99.90;14.10;102305.00;;;;6176537;23;20158;-66
2023/04/16 09:30:23;;;;;;;1.13;1.13;;;11.20;99.90;13.90;102300.00;;;;6194065;23;20274;-66
2023/04/16 09:33:21;;;;;;;0.10;0.10;;;11.20;99.90;13.80;102267.00;;;;6220967;23;20157;-65
2023/04/16 09:35:58;;;;;;;0.53;0.53;;;11.10;99.90;14.50;102310.00;;;;6219275;23;20568;-65
2023/04/16 09:38:54;;;;;;;0.67;0.67;;;11.30;99.90;14.10;102309.00;;;;6219435;23;20566;-66
2023/04/16 09:41:34;;;;;;;0.73;0.73;;;11.30;99.90;14.20;102310.00;;;;6220236;23;20145;-66
2023/04/16 09:44:34;;;;;;;0.60;0.60;;;11.20;99.90;14.20;102324.00;;;;6193710;23;20158;-65
2023/04/16 09:47:09;;;;;;;0.97;0.73;;;11.40;99.90;14.10;102300.00;;;;6194214;23;20157;-65
2023/04/16 09:49:49;;;;;;;1.40;0.90;;;11.30;99.90;13.80;102313.00;;;;6219469;23;20574;-65
2023/04/16 09:53:10;;;;;;;2.20;2.10;;;11.30;99.90;13.60;102314.00;;;;6194141;23;20167;-65
2023/04/16 09:56:00;;;;;;;3.97;1.47;;;11.10;99.90;14.00;102327.00;;;;6221640;23;20488;-66
2023/04/16 09:58:52;;;;;;;0.83;0.83;;;11.00;99.90;14.10;102302.00;;;;6218139;23;20162;-65
2023/04/16 10:01:18;;;;;;;2.70;1.20;;;11.20;99.90;13.70;102326.00;;;;6216892;23;20498;-66
2023/04/16 10:03:52;;;;;;;0.30;0.30;;;11.20;99.90;13.90;102312.00;;;;6215711;23;20581;-65
2023/04/16 10:06:30;;;;;;;0.53;0.53;;;11.20;99.90;14.30;102334.00;;;;6215442;23;20152;-65
2023/04/16 10:09:16;;;;;;;1.27;1.10;;;11.20;99.90;13.50;102289.00;;;;6193947;23;20174;-65
2023/04/16 10:11:50;;;;;;;0.73;0.40;;;11.10;99.90;14.10;102336.00;;;;6217600;23;20476;-65
2023/04/16 10:14:30;;;;;;;1.50;1.40;;;11.20;99.90;13.60;102333.00;;;;6217874;23;20601;-65
2023/04/16 10:17:20;;;;;;;4.07;3.43;;;11.00;99.90;14.60;102332.00;;;;6218313;23;20192;-65
2023/04/16 10:20:24;;;;;;;0.27;0.27;;;11.30;99.90;15.00;102317.00;;;;6218628;23;20157;-66
2023/04/16 10:33:43;;;;;;;1.20;1.07;;;10.10;99.90;13.00;102288.00;;;;5068339;28;20594;-63
2023/04/16 10:36:58;;;;;;;5.53;2.17;;;10.40;99.90;14.20;102309.00;;;;5031825;28;20585;-63
2023/04/16 10:40:20;;;;;;;0.30;0.30;;;10.90;99.90;14.50;102336.00;;;;5050256;28;20197;-63
2023/04/16 10:43:26;;;;;;;0.83;0.83;;;11.10;99.90;13.10;102331.00;;;;5043745;28;20658;-63
2023/04/16 10:46:22;;;;;;;4.93;1.20;;;11.20;99.90;14.20;102319.00;;;;5044836;28;20236;-63
2023/04/16 10:49:18;;;;;;;7.67;2.33;;;11.30;99.90;14.10;102306.00;;;;5049975;28;20179;-66
2023/04/16 10:52:26;;;;;;;2.10;2.00;;;11.20;99.90;14.00;102346.00;;;;5034038;28;20198;-63
2023/04/16 10:55:23;;;;;;;4.33;1.60;;;11.10;99.90;14.50;102344.00;;;;5045339;28;20232;-63
2023/04/16 10:58:21;;;;;;;0.27;0.27;;;11.30;99.90;14.10;102341.00;;;;5032425;28;20599;-63
2023/04/16 11:01:05;;;;;;;0.30;0.30;;;11.30;99.90;14.40;102342.00;;;;5007613;28;20203;-63
2023/04/16 11:04:00;;;;;;;0.90;0.70;;;11.20;99.90;14.70;102344.00;;;;4989368;28;20230;-63
2023/04/16 11:06:42;;;;;;;0.47;0.47;;;11.40;99.90;14.20;102307.00;;;;5021219;28;20184;-63
2023/04/16 11:09:53;;;;;;;1.77;1.23;;;11.40;99.90;14.10;102309.00;;;;5043399;28;20182;-63
2023/04/16 11:13:35;;;;;;;7.23;0.60;;;11.50;99.90;13.60;102324.00;;;;5038389;28;20220;-63
2023/04/16 11:16:01;;;;;;;0.80;0.80;;;11.10;99.90;13.70;102332.00;;;;5027148;28;20203;-63
2023/04/16 11:18:33;;;;;;;0.20;0.20;;;11.20;99.90;13.90;102308.00;;;;5048757;28;20770;-63
2023/04/16 11:21:43;;;;;;;0.73;0.73;;;11.10;99.90;14.60;102329.00;;;;5048865;28;20202;-63
2023/04/16 11:24:35;;;;;;;0.20;0.20;;;11.40;99.90;15.00;102361.00;;;;5043523;28;20280;-63
2023/04/16 11:27:04;;;;;;;1.43;0.87;;;11.60;99.90;14.70;102345.00;;;;5047807;28;20202;-63
2023/04/16 11:29:35;;;;;;;0.83;0.83;;;11.70;99.90;15.10;102324.00;;;;5047044;28;20273;-63
2023/04/16 11:32:07;;;;;;;0.60;0.60;;;11.80;99.90;14.40;102346.00;;;;5045124;28;20221;-64
2023/04/16 11:34:53;;;;;;;5.00;1.90;;;11.90;99.90;14.20;102340.00;;;;5049009;28;20743;-63
2023/04/16 11:37:33;;;;;;;4.33;1.47;;;11.70;99.90;14.70;102338.00;;;;5045849;28;20194;-63
2023/04/16 11:39:59;;;;;;;0.80;0.80;;;11.80;99.90;15.10;102339.00;;;;5038991;28;20241;-63
2023/04/16 11:42:41;;;;;;;0.20;0.20;;;11.80;99.90;15.20;102352.00;;;;5048095;28;20192;-63
2023/04/16 11:45:17;;;;;;;2.43;1.57;;;12.00;99.90;14.80;102336.00;;;;5034224;28;20566;-63
2023/04/16 11:48:01;;;;;;;0.20;0.20;;;11.90;99.90;15.30;102339.00;;;;5035417;28;20352;-63
2023/04/16 11:51:08;;;;;;;0.27;0.27;;;11.90;99.90;15.30;102349.00;;;;5034478;28;20194;-63
2023/04/16 11:53:51;;;;;;;0.40;0.40;;;11.90;99.90;15.50;102294.00;;;;5033222;28;20207;-63
2023/04/16 11:57:27;;;;;;;0.93;0.93;;;12.10;99.90;14.60;102336.00;;;;5033569;28;20665;-63
2023/04/16 12:00:22;;;;;;;0.20;0.20;;;12.10;99.90;14.60;102337.00;;;;5023989;28;20195;-65
2023/04/16 12:03:05;;;;;;;0.20;0.20;;;11.90;99.90;14.90;102354.00;;;;5029834;28;20579;-65
2023/04/16 12:05:39;;;;;;;0.27;0.27;;;12.00;99.90;15.10;102357.00;;;;5031098;28;20190;-64
2023/04/16 12:08:43;;;;;;;1.00;1.00;;;12.00;99.90;15.40;102348.00;;;;5032814;28;20199;-65
2023/04/16 12:11:33;;;;;;;0.63;0.63;;;12.20;99.90;14.70;102345.00;;;;5035431;28;20183;-67
2023/04/16 12:14:21;;;;;;;0.50;0.50;;;12.20;99.90;14.70;102349.00;;;;5032708;28;20541;-63
2023/04/16 12:17:19;;;;;;;0.67;0.67;;;12.20;99.90;15.10;102347.00;;;;5017624;28;20208;-64
2023/04/16 12:20:17;;;;;;;0.20;0.20;;;12.20;99.90;16.10;102362.00;;;;5023458;28;20184;-68
2023/04/16 12:23:00;;;;;;;0.50;0.50;;;12.50;99.90;15.70;102339.00;;;;5016907;28;20226;-67
2023/04/16 12:25:51;;;;;;;1.17;0.87;;;12.70;99.90;15.20;102355.00;;;;5031588;28;20747;-66
2023/04/16 12:28:35;;;;;;;0.30;0.30;;;12.50;99.90;15.60;102364.00;;;;5025582;28;20189;-65
2023/04/16 12:31:36;;;;;;;1.33;0.67;;;12.50;99.90;15.00;102354.00;;;;5014177;28;20221;-65
2023/04/16 12:34:43;;;;;;;0.30;0.30;;;12.30;99.90;15.80;102366.00;;;;5031243;28;20231;-62
2023/04/16 12:37:49;;;;;;;0.40;0.40;;;12.50;99.90;16.80;102387.00;;;;5021596;28;20225;-62
2023/04/16 12:40:40;;;;;;;0.20;0.20;;;13.00;99.90;15.70;102367.00;;;;5034043;28;20310;-62
2023/04/16 12:43:34;;;;;;;6.90;1.83;;;13.00;99.90;15.70;102359.00;;;;5043243;28;20621;-63
2023/04/16 12:46:41;;;;;;;0.87;0.60;;;13.00;99.90;14.40;102355.00;;;;5028249;28;20199;-62
2023/04/16 12:49:30;;;;;;;0.20;0.20;;;12.70;99.90;15.00;102351.00;;;;5024221;28;20183;-62
2023/04/16 12:52:34;;;;;;;5.30;2.60;;;12.30;99.90;15.20;102361.00;;;;4991729;28;20324;-62
2023/04/16 12:55:24;;;;;;;1.23;1.13;;;12.30;99.90;15.60;102367.00;;;;5022802;28;20192;-62
2023/04/16 12:58:15;;;;;;;0.47;0.47;;;12.40;99.90;15.70;102372.00;;;;5030694;28;20184;-62
2023/04/16 13:01:06;;;;;;;0.53;0.30;;;12.60;99.90;16.00;102366.00;;;;5026730;28;20193;-62
2023/04/16 13:04:10;;;;;;;0.67;0.30;;;12.70;99.90;16.10;102373.00;;;;4980192;28;20247;-62
2023/04/16 13:06:59;;;;;;;1.50;0.50;;;12.80;99.90;16.00;102350.00;;;;4980090;28;20204;-63
2023/04/16 13:10:01;;;;;;;0.40;0.40;;;12.80;99.90;16.40;102339.00;;;;5031383;28;20693;-62
2023/04/16 13:12:45;;;;;;;0.30;0.30;;;13.00;99.90;16.00;102359.00;;;;5025702;28;20215;-63
2023/04/16 13:15:31;;;;;;;1.10;1.07;;;13.10;99.90;15.70;102352.00;;;;5043388;28;20816;-62
2023/04/16 13:18:38;;;;;;;0.70;0.70;;;12.80;99.90;15.30;102320.00;;;;5032592;28;20176;-63
2023/04/16 13:21:34;;;;;;;0.20;0.20;;;12.70;99.90;15.50;102357.00;;;;5031022;28;20183;-66
2023/04/16 13:24:28;;;;;;;0.20;0.20;;;12.80;99.90;15.40;102332.00;;;;5022458;28;20192;-62
2023/04/16 13:27:15;;;;;;;0.30;0.30;;;12.60;99.90;16.20;102355.00;;;;5026603;28;20268;-62
2023/04/16 13:30:28;;;;;;;1.43;1.37;;;12.90;99.90;16.50;102358.00;;;;5059819;28;20189;-62
2023/04/16 13:33:31;;;;;;;6.57;0.97;;;13.30;99.90;16.50;102335.00;;;;5032336;28;20214;-62
2023/04/16 13:36:28;;;;;;;3.93;2.13;;;13.50;99.90;16.50;102359.00;;;;5059228;28;20640;-62
2023/04/16 13:39:04;;;;;;;3.20;0.97;;;13.60;99.90;16.70;102370.00;;;;5031350;28;20263;-62
2023/04/16 13:41:57;;;;;;;0.10;0.10;;;13.70;99.90;16.60;102365.00;;;;5031119;28;20190;-62
2023/04/16 13:44:52;;;;;;;0.43;0.43;;;13.60;99.90;15.70;102352.00;;;;5032491;28;20296;-62
2023/04/16 13:47:44;;;;;;;0.57;0.57;;;13.30;99.90;15.40;102346.00;;;;5033108;28;20229;-62
2023/04/16 13:50:37;;;;;;;1.20;1.13;;;13.00;99.90;14.70;102333.00;;;;4995871;28;20197;-62
2023/04/16 13:53:46;;;;;;;0.50;0.50;;;12.60;99.90;15.50;102346.00;;;;5029595;28;20209;-62
2023/04/16 13:56:32;;;;;;;2.40;1.87;;;12.90;99.90;16.30;102358.00;;;;5023792;28;20191;-63
2023/04/16 13:59:06;;;;;;;0.90;0.63;;;13.10;99.90;16.00;102348.00;;;;5028787;28;20190;-62
2023/04/16 14:01:31;;;;;;;0.40;0.40;;;13.10;99.90;16.10;102350.00;;;;5031909;28;20193;-62
2023/04/16 14:04:17;;;;;;;0.63;0.63;;;13.20;99.90;16.50;102344.00;;;;5032245;28;20186;-63
2023/04/16 14:06:43;;;;;;;0.80;0.73;;;13.40;99.90;16.90;102355.00;;;;5031290;28;20205;-62
2023/04/16 14:09:30;;;;;;;2.00;1.53;;;13.50;99.90;15.00;102329.00;;;;5031698;28;20194;-62
2023/04/16 14:12:38;;;;;;;0.53;0.53;;;13.30;99.90;15.50;102334.00;;;;5031630;28;20213;-62
2023/04/16 14:15:46;;;;;;;1.33;1.23;;;13.00;99.90;16.00;102352.00;;;;5031025;28;20213;-62
2023/04/16 14:18:55;;;;;;;0.20;0.20;;;12.90;99.90;16.60;102357.00;;;;5032545;28;20604;-62
2023/04/16 14:21:56;;;;;;;0.67;0.67;;;13.10;99.90;16.80;102325.00;;;;5016011;28;20185;-64
2023/04/16 14:24:59;;;;;;;0.73;0.73;;;13.60;99.90;15.90;102312.00;;;;5033373;28;20591;-63
2023/04/16 14:28:03;;;;;;;0.70;0.70;;;13.10;99.90;15.90;102352.00;;;;5028663;28;20537;-62
2023/04/16 14:31:09;;;;;;;0.20;0.20;;;13.00;99.90;16.30;102349.00;;;;5031709;28;20220;-62
2023/04/16 14:34:05;;;;;;;0.17;0.17;;;13.00;99.90;15.70;102318.00;;;;5030564;28;20687;-62
2023/04/16 14:37:08;;;;;;;0.50;0.50;;;13.20;99.90;16.00;102358.00;;;;5037076;28;20630;-63
2023/04/16 14:40:12;;;;;;;0.10;0.10;;;13.10;99.90;16.50;102332.00;;;;5022856;28;20272;-64
2023/04/16 14:43:20;;;;;;;0.37;0.37;;;13.20;99.90;16.40;102359.00;;;;5021306;28;20221;-63
2023/04/16 14:46:25;;;;;;;2.63;2.40;;;13.20;99.90;15.00;102348.00;;;;5024305;28;20188;-63
2023/04/16 14:49:13;;;;;;;1.00;1.00;;;13.00;99.90;15.20;102338.00;;;;5022109;28;20281;-63
2023/04/16 14:52:17;;;;;;;0.70;0.70;;;12.60;99.90;16.00;102320.00;;;;5062334;28;20256;-63
2023/04/16 14:55:21;;;;;;;1.07;1.07;;;12.80;99.90;15.70;102353.00;;;;5045699;28;20201;-63
2023/04/16 14:58:22;;;;;;;0.60;0.60;;;13.00;99.90;16.40;102342.00;;;;5029323;28;20199;-63
2023/04/16 15:01:13;;;;;;;3.70;1.93;;;13.00;99.90;16.70;102342.00;;;;5057554;28;20184;-63
2023/04/16 15:04:10;;;;;;;0.60;0.60;;;13.30;99.90;16.70;102331.00;;;;5030409;28;20283;-63
2023/04/16 15:07:07;;;;;;;0.20;0.20;;;13.40;99.90;15.50;102347.00;;;;5028614;28;20332;-63
2023/04/16 15:10:09;;;;;;;0.57;0.57;;;13.30;99.90;15.50;102333.00;;;;5026741;28;20263;-65
2023/04/16 15:13:04;;;;;;;0.63;0.50;;;12.90;99.90;15.80;102346.00;;;;5031399;28;20793;-63
2023/04/16 15:15:59;;;;;;;0.33;0.33;;;13.00;99.90;15.50;102338.00;;;;5005075;28;20654;-63
2023/04/16 15:18:28;;;;;;;0.20;0.20;;;12.90;99.90;16.50;102332.00;;;;5031796;28;20213;-63
2023/04/16 15:20:54;;;;;;;0.20;0.20;;;13.00;99.90;15.60;102344.00;;;;5032148;28;20229;-63
2023/04/16 15:23:23;;;;;;;0.77;0.77;;;12.90;99.90;15.30;102333.00;;;;5034922;28;20174;-63
2023/04/16 15:25:51;;;;;;;0.10;0.10;;;12.70;99.90;16.30;102341.00;;;;5036010;28;20212;-63
2023/04/16 15:28:18;;;;;;;0.17;0.17;;;12.90;99.90;16.80;102354.00;;;;5034875;28;20184;-63
2023/04/16 15:30:47;;;;;;;0.20;0.20;;;13.20;99.90;15.60;102338.00;;;;5036431;28;20237;-63
2023/04/16 15:33:13;;;;;;;1.73;1.10;;;13.10;99.90;15.70;102332.00;;;;5034844;28;20704;-63
2023/04/16 15:35:40;;;;;;;0.40;0.40;;;12.80;99.90;16.20;102351.00;;;;5035627;28;20169;-63
2023/04/16 15:38:11;;;;;;;0.93;0.50;;;12.90;99.90;15.80;102341.00;;;;5034399;28;20186;-63
2023/04/16 15:40:42;;;;;;;2.20;0.90;;;12.80;99.90;16.30;102355.00;;;;5034473;28;20193;-63
2023/04/16 15:43:28;;;;;;;0.53;0.53;;;13.00;99.90;15.00;102342.00;;;;5034730;28;20192;-62
2023/04/16 15:46:01;;;;;;;0.30;0.30;;;12.70;99.90;15.30;102300.00;;;;5035613;28;20172;-61
2023/04/16 15:48:35;;;;;;;1.37;1.27;;;12.40;99.90;15.70;102350.00;;;;5035995;28;20196;-61
2023/04/16 15:51:06;;;;;;;0.20;0.20;;;12.70;99.90;16.20;102340.00;;;;5035244;28;20183;-61
2023/04/16 15:53:38;;;;;;;0.37;0.20;;;12.80;99.90;16.10;102340.00;;;;5034238;28;20189;-63
2023/04/16 15:56:14;;;;;;;0.80;0.80;;;12.90;99.90;14.90;102328.00;;;;5034334;28;20643;-60
2023/04/16 15:58:45;;;;;;;0.20;0.20;;;12.60;99.90;15.50;102336.00;;;;5030302;28;20187;-60
2023/04/16 16:01:22;;;;;;;1.50;1.27;;;12.60;99.90;16.10;102331.00;;;;5035216;28;20202;-61
2023/04/16 16:03:52;;;;;;;1.07;0.87;;;12.90;99.90;14.80;102341.00;;;;5035343;28;20665;-63
2023/04/16 16:06:19;;;;;;;1.60;1.07;;;12.60;99.90;14.90;102336.00;;;;5034270;28;20190;-61
2023/04/16 16:08:45;;;;;;;0.53;0.37;;;12.50;99.90;14.30;102335.00;;;;5017803;28;20220;-64
2023/04/16 16:11:11;;;;;;;0.10;0.10;;;12.20;99.90;15.20;102342.00;;;;5033839;28;20599;-61
2023/04/16 16:13:42;;;;;;;1.50;0.70;;;12.20;99.90;15.60;102317.00;;;;5034565;28;20219;-61
2023/04/16 16:16:14;;;;;;;0.20;0.20;;;12.30;99.90;15.60;102338.00;;;;5034702;28;20579;-61
2023/04/16 16:18:40;;;;;;;0.10;0.10;;;12.30;99.90;14.90;102314.00;;;;5029202;28;20243;-61
2023/04/16 16:21:07;;;;;;;0.10;0.10;;;12.30;99.90;15.70;102325.00;;;;5033290;28;20187;-61
2023/04/16 16:23:36;;;;;;;0.77;0.63;;;12.40;99.90;15.80;102318.00;;;;5035683;28;20185;-61
2023/04/16 16:26:04;;;;;;;0.40;0.40;;;12.50;99.90;15.60;102343.00;;;;5034369;28;20185;-61
2023/04/16 16:28:30;;;;;;;0.10;0.10;;;12.40;99.90;15.60;102346.00;;;;5034303;28;20183;-61
2023/04/16 16:31:02;;;;;;;0.30;0.30;;;12.50;99.90;16.00;102352.00;;;;5034609;28;20187;-61
2023/04/16 16:33:39;;;;;;;1.00;1.00;;;12.70;99.90;15.70;102335.00;;;;5034791;28;20594;-61
2023/04/16 16:36:14;;;;;;;2.13;2.07;;;12.70;99.90;15.70;102338.00;;;;5034632;28;20652;-62
2023/04/16 16:38:53;;;;;;;0.20;0.20;;;12.70;99.90;16.20;102348.00;;;;5032006;28;20180;-61
2023/04/16 16:41:20;;;;;;;0.73;0.73;;;12.70;99.90;15.90;102340.00;;;;5034846;28;20210;-61
2023/04/16 16:43:54;;;;;;;0.30;0.30;;;12.80;99.90;15.40;102330.00;;;;5034496;28;20183;-61
2023/04/16 16:46:21;;;;;;;0.63;0.63;;;12.60;99.90;15.80;102339.00;;;;5034524;28;20219;-61
2023/04/16 16:48:57;;;;;;;0.20;0.20;;;12.60;99.90;15.20;102329.00;;;;5033728;28;20192;-61
2023/04/16 16:51:40;;;;;;;0.20;0.20;;;12.40;99.90;15.30;102340.00;;;;5034487;28;20244;-61
2023/04/16 16:54:07;;;;;;;0.20;0.20;;;12.30;99.90;15.70;102341.00;;;;5023181;28;20262;-61
2023/04/16 16:56:42;;;;;;;1.13;1.13;;;12.30;99.90;16.40;102350.00;;;;5034212;28;20277;-64
2023/04/16 16:59:13;;;;;;;1.33;0.80;;;12.70;99.90;16.40;102351.00;;;;5034125;28;20178;-64
2023/04/16 17:02:12;;;;;;;1.90;1.13;;;12.80;99.90;16.50;102343.00;;;;5034104;28;20199;-64
2023/04/16 17:05:22;;;;;;;0.73;0.73;;;12.90;99.90;16.30;102356.00;;;;5032969;28;20183;-64
2023/04/16 17:08:32;;;;;;;1.00;1.00;;;13.20;99.90;15.70;102337.00;;;;5033400;28;20315;-64
2023/04/16 17:11:38;;;;;;;1.03;1.03;;;13.00;99.90;16.70;102328.00;;;;5029237;28;20197;-64
2023/04/16 17:14:42;;;;;;;5.87;2.43;;;13.00;99.90;15.80;102345.00;;;;5043866;28;20227;-64
2023/04/16 17:17:33;;;;;;;10.53;2.10;;;12.70;99.90;16.00;102350.00;;;;5028586;28;20188;-64
2023/04/16 17:20:13;;;;;;;0.23;0.23;;;12.70;99.90;16.00;102352.00;;;;5033094;28;20185;-64
2023/04/16 17:23:04;;;;;;;0.40;0.40;;;12.70;99.90;15.60;102338.00;;;;5033749;28;20210;-64
2023/04/16 17:25:55;;;;;;;1.07;1.07;;;12.50;99.90;15.70;102347.00;;;;5030819;28;20186;-64
2023/04/16 17:28:52;;;;;;;0.20;0.20;;;12.60;99.90;16.20;102350.00;;;;5032433;28;20193;-64
2023/04/16 17:31:41;;;;;;;0.20;0.20;;;12.50;99.90;16.50;102348.00;;;;5040748;28;20205;-64
2023/04/16 17:34:06;;;;;;;1.20;1.10;;;12.80;99.90;15.90;102317.00;;;;5032623;28;20218;-64
2023/04/16 17:37:27;;;;;;;0.40;0.40;;;12.80;99.90;15.50;102337.00;;;;5016010;28;20212;-64
2023/04/16 17:40:30;;;;;;;1.17;1.13;;;12.60;99.90;15.40;102349.00;;;;5031830;28;20192;-64
2023/04/16 17:43:28;;;;;;;0.70;0.70;;;12.40;99.90;15.80;102352.00;;;;5033109;28;20200;-64
2023/04/16 17:45:57;;;;;;;0.20;0.20;;;12.30;99.90;16.00;102359.00;;;;5061675;28;20199;-64
2023/04/16 17:48:34;;;;;;;1.33;1.33;;;12.50;99.90;15.80;102358.00;;;;5028586;28;20183;-64
2023/04/16 17:51:10;;;;;;;1.80;1.70;;;12.70;99.90;16.00;102358.00;;;;5032086;28;20180;-63
2023/04/16 17:53:42;;;;;;;1.27;1.27;;;12.70;99.90;16.20;102352.00;;;;5032255;28;20649;-63
2023/04/16 17:56:11;;;;;;;1.60;1.07;;;12.80;99.90;15.90;102365.00;;;;5032231;28;20276;-64
2023/04/16 17:59:18;;;;;;;2.00;1.23;;;12.70;99.90;16.50;102341.00;;;;5032191;28;20257;-62
2023/04/16 18:02:24;;;;;;;2.83;1.90;;;12.70;99.90;15.90;102366.00;;;;5034134;28;20201;-63
2023/04/16 18:04:50;;;;;;;1.07;1.07;;;12.80;99.90;15.50;102361.00;;;;5026135;28;20192;-62
2023/04/16 18:07:28;;;;;;;0.80;0.80;;;12.60;99.90;15.60;102350.00;;;;5031318;28;20256;-62
2023/04/16 18:09:54;;;;;;;0.37;0.37;;;12.30;99.90;15.00;102338.00;;;;5048546;28;20226;-62
2023/04/16 18:12:32;;;;;;;0.63;0.57;;;12.30;99.90;15.80;102339.00;;;;5015448;28;20627;-62
2023/04/16 18:15:41;;;;;;;0.20;0.20;;;12.40;99.90;16.00;102372.00;;;;5033119;28;20194;-63
2023/04/16 18:19:00;;;;;;;1.73;1.63;;;12.40;99.90;14.50;102365.00;;;;5019137;28;20271;-66
2023/04/16 18:21:57;;;;;;;0.40;0.40;;;12.20;99.90;15.60;102376.00;;;;5041895;28;20654;-61
2023/04/16 18:24:35;;;;;;;0.20;0.20;;;12.10;99.90;15.50;102365.00;;;;5027917;28;20183;-61
2023/04/16 18:27:38;;;;;;;1.80;1.03;;;12.20;99.90;16.00;102376.00;;;;5031541;28;20185;-61
2023/04/16 18:30:10;;;;;;;3.10;2.90;;;12.30;99.90;15.90;102372.00;;;;5024219;28;20222;-61
2023/04/16 18:32:50;;;;;;;0.73;0.73;;;12.50;99.90;16.00;102367.00;;;;5014616;28;20678;-62
2023/04/16 18:35:21;;;;;;;1.70;0.60;;;12.50;99.90;15.20;102370.00;;;;5028693;28;20197;-62
2023/04/16 18:37:56;;;;;;;2.53;1.73;;;12.30;99.90;15.40;102381.00;;;;5029606;28;20260;-61
2023/04/16 18:41:09;;;;;;;0.83;0.83;;;12.20;99.90;15.50;102378.00;;;;5029421;28;20595;-62
2023/04/16 18:43:58;;;;;;;0.33;0.33;;;12.20;99.90;15.30;102376.00;;;;5013128;28;20198;-62
2023/04/16 18:46:32;;;;;;;0.63;0.63;;;12.10;99.90;15.70;102392.00;;;;5014208;28;20229;-61
2023/04/16 18:48:58;;;;;;;1.70;1.60;;;12.20;99.90;14.80;102388.00;;;;5031022;28;20187;-61
2023/04/16 18:51:29;;;;;;;0.20;0.20;;;12.00;99.90;15.50;102383.00;;;;5033065;28;20713;-61
2023/04/16 18:54:21;;;;;;;0.20;0.20;;;12.00;99.90;15.30;102393.00;;;;5028243;28;20186;-61
2023/04/16 18:56:49;;;;;;;2.53;1.83;;;12.10;99.90;15.30;102394.00;;;;5010664;28;20564;-61
2023/04/16 18:59:45;;;;;;;0.70;0.70;;;12.10;99.90;15.30;102387.00;;;;5014100;28;20243;-61
2023/04/16 19:02:28;;;;;;;0.20;0.20;;;12.00;99.90;15.00;102393.00;;;;5003713;28;20199;-61
2023/04/16 19:05:04;;;;;;;4.03;1.53;;;12.00;99.90;15.10;102403.00;;;;5014666;28;20776;-61
2023/04/16 19:07:53;;;;;;;0.60;0.60;;;12.10;99.90;14.90;102399.00;;;;4998183;28;20661;-61
2023/04/16 19:10:21;;;;;;;0.20;0.20;;;11.90;99.90;15.60;102402.00;;;;5027143;28;20192;-61
2023/04/16 19:12:55;;;;;;;0.20;0.20;;;12.00;99.90;15.50;102401.00;;;;5027219;28;20222;-61
2023/04/16 19:15:20;;;;;;;0.60;0.60;;;12.10;99.90;15.60;102408.00;;;;5024394;28;20204;-61